createdAt,value
2019-03-29T00:00:56.422Z,58.58
2019-03-29T00:03:29.800Z,58.69
2019-03-29T00:06:03.263Z,58.57
2019-03-29T00:08:36.629Z,58.62
2019-03-29T00:11:10.082Z,58.59
2019-03-29T00:13:43.543Z,58.65
2019-03-29T00:16:16.880Z,58.71
2019-03-29T00:18:50.337Z,58.57
2019-03-29T00:21:23.721Z,58.56
2019-03-29T00:24:06.670Z,58.73
2019-03-29T00:26:32.231Z,58.71
2019-03-29T00:29:07.090Z,58.79
2019-03-29T00:31:40.497Z,58.64
2019-03-29T00:34:13.889Z,58.63
2019-03-29T00:36:48.204Z,58.62
2019-03-29T00:39:21.546Z,58.68
2019-03-29T00:41:54.998Z,58.78
2019-03-29T00:44:28.434Z,58.82
2019-03-29T00:47:01.749Z,58.72
2019-03-29T00:49:35.226Z,58.77
2019-03-29T00:52:08.578Z,58.71
2019-03-29T00:54:41.973Z,58.71
2019-03-29T00:57:15.410Z,58.77
2019-03-29T00:59:48.856Z,58.79
2019-03-29T01:02:22.253Z,58.74
2019-03-29T01:04:55.597Z,58.78
2019-03-29T01:07:28.966Z,58.79
2019-03-29T01:10:02.389Z,58.89
2019-03-29T01:12:35.772Z,58.91
2019-03-29T01:15:09.905Z,58.97
2019-03-29T01:17:43.389Z,59.00
2019-03-29T01:20:16.933Z,58.92
2019-03-29T01:22:50.260Z,59.05
2019-03-29T01:25:23.707Z,59.07
2019-03-29T01:27:57.126Z,59.04
2019-03-29T01:30:30.499Z,59.04
2019-03-29T01:33:03.817Z,59.09
2019-03-29T01:35:37.254Z,59.05
2019-03-29T01:38:21.189Z,59.11
2019-03-29T01:40:45.894Z,59.08
2019-03-29T01:43:19.253Z,59.08
2019-03-29T01:45:52.657Z,58.99
2019-03-29T01:48:26.143Z,58.98
2019-03-29T01:50:59.585Z,58.98
2019-03-29T01:53:32.973Z,58.92
2019-03-29T01:56:06.383Z,58.97
2019-03-29T01:58:39.730Z,59.02
2019-03-29T02:01:13.246Z,59.10
2019-03-29T02:03:46.632Z,59.11
2019-03-29T02:06:20.353Z,59.19
2019-03-29T02:08:53.819Z,59.12
2019-03-29T02:11:27.258Z,59.10
2019-03-29T02:14:00.634Z,59.22
2019-03-29T02:16:33.963Z,59.26
2019-03-29T02:19:07.336Z,59.19
2019-03-29T02:21:40.670Z,59.34
2019-03-29T02:24:14.219Z,59.47
2019-03-29T02:26:47.537Z,59.35
2019-03-29T02:29:20.974Z,59.29
2019-03-29T02:31:54.360Z,59.25
2019-03-29T02:34:27.812Z,59.37
2019-03-29T02:37:02.284Z,59.28
2019-03-29T02:39:36.178Z,59.26
2019-03-29T02:42:09.601Z,59.27
2019-03-29T02:44:42.994Z,59.33
2019-03-29T02:47:16.453Z,59.39
2019-03-29T02:49:49.815Z,59.43
2019-03-29T02:52:23.211Z,59.40
2019-03-29T02:54:56.637Z,59.44
2019-03-29T02:57:30.062Z,59.42
2019-03-29T03:00:05.085Z,59.46
2019-03-29T03:02:38.520Z,59.48
2019-03-29T03:05:12.141Z,59.57
2019-03-29T03:07:45.639Z,59.59
2019-03-29T03:10:19.218Z,59.50
2019-03-29T03:12:52.666Z,59.50
2019-03-29T03:15:26.133Z,59.56
2019-03-29T03:17:59.587Z,59.56
2019-03-29T03:20:33.046Z,59.45
2019-03-29T03:23:06.566Z,59.42
2019-03-29T03:25:39.960Z,59.59
2019-03-29T03:28:13.395Z,59.66
2019-03-29T03:30:46.870Z,59.86
2019-03-29T03:33:20.368Z,59.81
2019-03-29T03:35:53.891Z,59.87
2019-03-29T03:38:27.312Z,59.90
2019-03-29T03:41:00.899Z,59.92
2019-03-29T03:43:34.317Z,59.97
2019-03-29T03:46:07.844Z,59.93
2019-03-29T03:48:41.347Z,59.99
2019-03-29T03:51:15.083Z,60.04
2019-03-29T03:53:48.501Z,59.96
2019-03-29T03:56:22.007Z,59.93
2019-03-29T03:58:55.956Z,59.98
2019-03-29T04:01:29.419Z,60.08
2019-03-29T04:04:02.872Z,59.93
2019-03-29T04:06:36.266Z,59.90
2019-03-29T04:09:09.684Z,59.81
2019-03-29T04:11:43.157Z,59.73
2019-03-29T04:14:16.615Z,59.79
2019-03-29T04:16:50.121Z,59.72
2019-03-29T04:19:23.579Z,59.74
2019-03-29T04:21:57.099Z,59.75
2019-03-29T04:24:30.536Z,59.82
2019-03-29T04:27:03.966Z,59.84
2019-03-29T04:29:37.415Z,59.86
2019-03-29T04:32:10.894Z,59.84
2019-03-29T04:34:44.421Z,59.76
2019-03-29T04:37:18.056Z,59.74
2019-03-29T04:40:06.375Z,59.89
2019-03-29T04:42:26.696Z,60.01
2019-03-29T04:45:00.494Z,60.07
2019-03-29T04:47:34.034Z,60.06
2019-03-29T04:50:07.595Z,60.09
2019-03-29T04:52:41.131Z,60.10
2019-03-29T04:55:14.736Z,59.90
2019-03-29T04:57:48.202Z,60.14
2019-03-29T05:00:21.651Z,60.14
2019-03-29T05:02:55.038Z,59.97
2019-03-29T05:05:28.640Z,60.05
2019-03-29T05:08:02.070Z,60.02
2019-03-29T05:10:35.587Z,60.06
2019-03-29T05:13:09.364Z,59.94
2019-03-29T05:15:42.871Z,59.92
2019-03-29T05:18:16.355Z,59.88
2019-03-29T05:20:49.833Z,59.79
2019-03-29T05:23:23.232Z,59.70
2019-03-29T05:25:56.645Z,59.64
2019-03-29T05:28:30.249Z,59.74
2019-03-29T05:31:03.694Z,59.64
2019-03-29T05:33:37.094Z,59.60
2019-03-29T05:36:10.471Z,59.57
2019-03-29T05:38:43.962Z,59.68
2019-03-29T05:41:17.362Z,59.74
2019-03-29T05:43:50.842Z,59.80
2019-03-29T05:46:24.257Z,59.79
2019-03-29T05:48:57.754Z,59.89
2019-03-29T05:51:31.099Z,60.01
2019-03-29T05:54:04.727Z,60.03
2019-03-29T05:56:38.249Z,60.12
2019-03-29T05:59:11.781Z,60.02
2019-03-29T06:01:45.207Z,60.03
2019-03-29T06:04:18.777Z,59.94
2019-03-29T06:06:52.199Z,59.92
2019-03-29T06:09:25.808Z,59.94
2019-03-29T06:11:59.320Z,59.91
2019-03-29T06:14:32.900Z,59.97
2019-03-29T06:17:06.345Z,59.96
2019-03-29T06:19:39.844Z,59.91
2019-03-29T06:22:13.263Z,59.88
2019-03-29T06:24:46.763Z,59.84
2019-03-29T06:27:20.248Z,60.17
2019-03-29T06:29:53.783Z,59.97
2019-03-29T06:32:27.155Z,59.98
2019-03-29T06:35:01.138Z,59.95
2019-03-29T06:37:35.649Z,59.77
2019-03-29T06:40:12.213Z,59.79
2019-03-29T06:42:45.694Z,59.67
2019-03-29T06:45:19.179Z,59.67
2019-03-29T06:47:52.669Z,59.57
2019-03-29T06:50:26.158Z,59.54
2019-03-29T06:52:59.685Z,59.44
2019-03-29T06:55:33.165Z,59.29
2019-03-29T06:58:06.666Z,59.35
2019-03-29T07:00:40.109Z,59.16
2019-03-29T07:03:13.537Z,58.63
2019-03-29T07:05:47.087Z,58.98
2019-03-29T07:08:20.541Z,58.35
2019-03-29T07:10:53.951Z,57.76
2019-03-29T07:13:27.295Z,56.48
2019-03-29T07:16:00.770Z,54.81
2019-03-29T07:18:34.235Z,53.93
2019-03-29T07:21:20.953Z,53.54
2019-03-29T07:23:42.986Z,53.06
2019-03-29T07:26:16.350Z,53.49
2019-03-29T07:28:49.998Z,52.81
2019-03-29T07:31:23.422Z,51.00
2019-03-29T07:33:56.897Z,49.12
2019-03-29T07:36:30.339Z,49.46
2019-03-29T07:39:05.079Z,48.58
2019-03-29T07:41:38.501Z,49.11
2019-03-29T07:44:11.988Z,48.37
2019-03-29T07:46:45.492Z,47.89
2019-03-29T07:49:19.001Z,48.60
2019-03-29T07:51:52.414Z,48.14
2019-03-29T07:54:25.958Z,46.48
2019-03-29T07:56:59.313Z,46.64
2019-03-29T07:59:32.824Z,45.66
2019-03-29T08:02:06.304Z,45.26
2019-03-29T08:04:39.829Z,43.94
2019-03-29T08:07:26.355Z,44.31
2019-03-29T08:09:48.831Z,45.49
2019-03-29T08:12:22.526Z,45.61
2019-03-29T08:14:56.049Z,46.30
2019-03-29T08:17:29.501Z,47.01
2019-03-29T08:20:36.660Z,47.53
2019-03-29T08:22:38.423Z,47.38
2019-03-29T08:25:11.900Z,48.17
2019-03-29T08:27:45.380Z,47.90
2019-03-29T08:30:18.914Z,47.77
2019-03-29T08:32:52.399Z,44.43
2019-03-29T08:35:25.806Z,44.01
2019-03-29T08:37:59.234Z,43.82
2019-03-29T08:40:32.692Z,44.25
2019-03-29T08:43:06.084Z,44.81
2019-03-29T08:45:39.551Z,45.00
2019-03-29T08:48:13.057Z,45.87
2019-03-29T08:50:46.579Z,46.16
2019-03-29T08:53:20.012Z,46.05
2019-03-29T08:55:53.482Z,45.58
2019-03-29T08:58:26.915Z,46.42
2019-03-29T09:01:00.463Z,46.16
2019-03-29T09:03:33.922Z,45.65
2019-03-29T09:06:07.470Z,44.73
2019-03-29T09:08:40.885Z,45.10
2019-03-29T09:11:14.339Z,45.63
2019-03-29T09:13:47.841Z,44.68
2019-03-29T09:16:21.295Z,43.02
2019-03-29T09:18:54.810Z,43.28
2019-03-29T09:21:28.285Z,43.74
2019-03-29T09:24:01.756Z,43.45
2019-03-29T09:26:35.307Z,40.16
2019-03-29T09:29:08.756Z,37.48
2019-03-29T09:31:42.294Z,34.08
2019-03-29T09:34:15.710Z,35.13
2019-03-29T09:36:49.204Z,37.01
2019-03-29T09:39:22.670Z,37.76
2019-03-29T09:41:56.323Z,37.70
2019-03-29T09:44:29.739Z,37.66
2019-03-29T09:47:03.170Z,38.20
2019-03-29T09:49:36.615Z,38.74
2019-03-29T09:52:10.186Z,38.19
2019-03-29T09:54:43.616Z,39.32
2019-03-29T09:57:17.010Z,39.01
2019-03-29T09:59:50.354Z,38.89
2019-03-29T10:02:23.821Z,38.74
2019-03-29T10:04:57.271Z,39.82
2019-03-29T10:07:30.775Z,40.17
2019-03-29T10:10:05.670Z,40.70
2019-03-29T10:12:43.668Z,40.13
2019-03-29T10:15:14.353Z,39.63
2019-03-29T10:17:47.814Z,39.39
2019-03-29T10:20:21.301Z,41.49
2019-03-29T10:22:54.776Z,38.16
2019-03-29T10:25:28.250Z,33.48
2019-03-29T10:28:01.722Z,31.98
2019-03-29T10:30:46.285Z,31.20
2019-03-29T10:33:18.054Z,31.50
2019-03-29T10:35:52.967Z,32.41
2019-03-29T10:38:26.758Z,31.58
2019-03-29T10:41:00.189Z,30.62
2019-03-29T10:43:33.781Z,29.67
2019-03-29T10:46:07.248Z,28.67
2019-03-29T10:48:40.699Z,29.55
2019-03-29T10:51:14.151Z,31.19
2019-03-29T10:53:47.632Z,31.63
2019-03-29T10:56:33.296Z,31.14
2019-03-29T10:58:56.313Z,32.05
2019-03-29T11:01:29.756Z,33.18
2019-03-29T11:04:03.192Z,34.16
2019-03-29T11:06:36.727Z,34.09
2019-03-29T11:09:10.088Z,35.15
2019-03-29T11:11:43.473Z,34.63
2019-03-29T11:14:16.891Z,34.28
2019-03-29T11:16:50.276Z,33.46
2019-03-29T11:19:23.690Z,33.90
2019-03-29T11:21:57.142Z,35.31
2019-03-29T11:24:30.576Z,34.53
2019-03-29T11:27:04.019Z,35.05
2019-03-29T11:29:37.462Z,34.61
2019-03-29T11:32:10.854Z,31.87
2019-03-29T11:34:44.285Z,32.67
2019-03-29T11:37:17.825Z,31.94
2019-03-29T11:39:51.256Z,31.96
2019-03-29T11:42:24.699Z,30.18
2019-03-29T11:44:58.115Z,30.94
2019-03-29T11:47:31.556Z,31.46
2019-03-29T11:50:05.862Z,33.15
2019-03-29T11:52:39.303Z,32.69
2019-03-29T11:55:12.660Z,33.06
2019-03-29T11:57:46.208Z,30.88
2019-03-29T12:00:22.726Z,31.18
2019-03-29T12:02:56.194Z,28.12
2019-03-29T12:05:29.539Z,27.64
2019-03-29T12:08:03.160Z,28.69
2019-03-29T12:10:36.660Z,28.59
2019-03-29T12:13:10.700Z,26.97
2019-03-29T12:15:44.116Z,26.57
2019-03-29T12:18:17.628Z,28.35
2019-03-29T12:20:54.181Z,27.92
2019-03-29T12:23:26.315Z,25.47
2019-03-29T12:25:59.710Z,25.22
2019-03-29T12:28:33.094Z,25.83
2019-03-29T12:31:06.814Z,26.28
2019-03-29T12:33:40.257Z,26.88
2019-03-29T12:36:13.625Z,27.77
2019-03-29T12:38:47.113Z,27.56
2019-03-29T12:41:20.483Z,26.59
2019-03-29T12:43:55.779Z,25.49
2019-03-29T12:46:32.200Z,23.78
2019-03-29T12:49:04.403Z,24.90
2019-03-29T12:51:37.908Z,26.72
2019-03-29T12:54:12.309Z,27.18
2019-03-29T12:56:45.878Z,26.39
2019-03-29T12:59:19.361Z,24.42
2019-03-29T13:01:52.815Z,25.53
2019-03-29T13:04:26.148Z,25.76
2019-03-29T13:06:59.641Z,25.88
2019-03-29T13:09:33.063Z,26.49
2019-03-29T13:12:06.614Z,24.88
2019-03-29T13:14:39.965Z,24.88
2019-03-29T13:17:13.526Z,26.24
2019-03-29T13:19:46.932Z,24.96
2019-03-29T13:22:20.417Z,23.07
2019-03-29T13:24:53.909Z,24.75
2019-03-29T13:27:27.354Z,26.52
2019-03-29T13:30:00.766Z,26.40
2019-03-29T13:32:34.308Z,26.97
2019-03-29T13:35:08.018Z,27.58
2019-03-29T13:37:41.372Z,29.12
2019-03-29T13:40:14.776Z,29.88
2019-03-29T13:42:48.219Z,28.96
2019-03-29T13:45:21.721Z,29.50
2019-03-29T13:47:55.166Z,29.94
2019-03-29T13:50:28.573Z,30.90
2019-03-29T13:53:02.320Z,30.70
2019-03-29T13:55:35.862Z,31.69
2019-03-29T13:58:09.299Z,31.51
2019-03-29T14:00:42.723Z,30.78
2019-03-29T14:03:16.213Z,31.73
2019-03-29T14:05:49.631Z,31.74
2019-03-29T14:08:23.148Z,32.04
2019-03-29T14:10:56.596Z,32.72
2019-03-29T14:13:30.046Z,33.13
2019-03-29T14:16:03.574Z,31.99
2019-03-29T14:18:36.943Z,32.65
2019-03-29T14:21:10.513Z,32.78
2019-03-29T14:23:43.912Z,32.69
2019-03-29T14:26:17.475Z,32.67
2019-03-29T14:28:51.372Z,33.49
2019-03-29T14:31:25.066Z,33.40
2019-03-29T14:33:58.597Z,33.99
2019-03-29T14:36:32.049Z,34.31
2019-03-29T14:39:06.674Z,33.70
2019-03-29T14:41:40.218Z,34.43
2019-03-29T14:44:13.635Z,34.04
2019-03-29T14:46:47.011Z,33.03
2019-03-29T14:49:20.526Z,33.68
2019-03-29T14:51:53.975Z,33.66
2019-03-29T14:54:27.323Z,33.79
2019-03-29T14:57:01.127Z,32.99
2019-03-29T14:59:34.473Z,32.25
2019-03-29T15:02:07.955Z,32.79
2019-03-29T15:04:41.374Z,33.20
2019-03-29T15:07:14.820Z,33.91
2019-03-29T15:09:48.540Z,33.26
2019-03-29T15:12:21.984Z,32.76
2019-03-29T15:15:05.464Z,33.47
2019-03-29T15:17:30.774Z,33.91
2019-03-29T15:20:06.526Z,34.01
2019-03-29T15:22:40.001Z,34.52
2019-03-29T15:25:13.419Z,34.70
2019-03-29T15:27:46.799Z,34.11
2019-03-29T15:30:20.327Z,34.74
2019-03-29T15:32:53.849Z,34.32
2019-03-29T15:35:27.308Z,34.46
2019-03-29T15:38:00.772Z,34.86
2019-03-29T15:40:34.297Z,34.43
2019-03-29T15:43:07.747Z,35.10
2019-03-29T15:45:41.100Z,35.14
2019-03-29T15:48:14.523Z,35.25
2019-03-29T15:50:47.877Z,34.96
2019-03-29T15:53:21.388Z,35.11
2019-03-29T15:55:54.931Z,35.53
2019-03-29T15:58:29.696Z,35.59
2019-03-29T16:01:03.199Z,35.83
2019-03-29T16:03:36.714Z,35.91
2019-03-29T16:06:10.151Z,36.19
2019-03-29T16:08:43.631Z,35.94
2019-03-29T16:11:17.448Z,36.30
2019-03-29T16:13:50.921Z,36.38
2019-03-29T16:16:24.401Z,36.26
2019-03-29T16:18:57.889Z,36.10
2019-03-29T16:21:31.326Z,36.33
2019-03-29T16:24:04.771Z,36.32
2019-03-29T16:26:38.250Z,36.06
2019-03-29T16:29:11.712Z,36.18
2019-03-29T16:31:45.131Z,36.40
2019-03-29T16:34:18.505Z,36.60
2019-03-29T16:36:52.013Z,36.80
2019-03-29T16:39:25.530Z,36.82
2019-03-29T16:41:58.978Z,36.38
2019-03-29T16:44:32.491Z,36.35
2019-03-29T16:47:05.917Z,36.57
2019-03-29T16:49:39.416Z,36.62
2019-03-29T16:52:12.754Z,36.34
2019-03-29T16:54:46.295Z,36.75
2019-03-29T16:57:19.750Z,36.79
2019-03-29T16:59:53.246Z,36.74
2019-03-29T17:02:26.755Z,36.89
2019-03-29T17:05:00.346Z,37.37
2019-03-29T17:07:34.119Z,37.41
2019-03-29T17:10:07.831Z,37.38
2019-03-29T17:12:41.378Z,37.65
2019-03-29T17:15:15.264Z,38.11
2019-03-29T17:17:48.681Z,38.20
2019-03-29T17:20:22.195Z,38.49
2019-03-29T17:22:55.621Z,38.66
2019-03-29T17:25:29.183Z,38.80
2019-03-29T17:28:02.521Z,39.22
2019-03-29T17:30:38.609Z,39.47
2019-03-29T17:33:12.091Z,39.69
2019-03-29T17:35:45.698Z,39.94
2019-03-29T17:38:19.144Z,39.84
2019-03-29T17:40:52.583Z,40.04
2019-03-29T17:43:25.990Z,40.21
2019-03-29T17:45:59.452Z,40.25
2019-03-29T17:48:32.893Z,40.59
2019-03-29T17:51:06.488Z,40.92
2019-03-29T17:53:40.042Z,41.11
2019-03-29T17:56:13.659Z,41.33
2019-03-29T17:58:47.182Z,41.75
2019-03-29T18:01:20.541Z,41.76
2019-03-29T18:03:54.074Z,41.99
2019-03-29T18:06:27.516Z,42.36
2019-03-29T18:09:00.909Z,42.79
2019-03-29T18:11:34.380Z,43.20
2019-03-29T18:14:07.806Z,43.26
2019-03-29T18:16:41.174Z,43.30
2019-03-29T18:19:14.621Z,43.83
2019-03-29T18:21:48.033Z,44.41
2019-03-29T18:24:21.485Z,44.64
2019-03-29T18:26:54.858Z,44.72
2019-03-29T18:29:28.308Z,45.08
2019-03-29T18:32:01.827Z,45.45
2019-03-29T18:34:37.685Z,45.62
2019-03-29T18:37:11.606Z,46.03
2019-03-29T18:39:45.608Z,45.67
2019-03-29T18:42:18.954Z,46.44
2019-03-29T18:44:52.399Z,46.43
2019-03-29T18:47:25.970Z,46.82
2019-03-29T18:49:59.352Z,46.81
2019-03-29T18:52:33.270Z,46.46
2019-03-29T18:55:07.315Z,46.71
2019-03-29T18:57:40.758Z,47.12
2019-03-29T19:00:14.516Z,47.06
2019-03-29T19:02:47.956Z,47.01
2019-03-29T19:05:25.635Z,46.83
2019-03-29T19:07:59.110Z,47.18
2019-03-29T19:10:32.630Z,47.37
2019-03-29T19:13:06.182Z,47.82
2019-03-29T19:15:39.726Z,48.07
2019-03-29T19:18:13.257Z,48.31
2019-03-29T19:20:46.703Z,48.21
2019-03-29T19:23:20.641Z,48.20
2019-03-29T19:25:54.080Z,48.01
2019-03-29T19:28:27.600Z,48.47
2019-03-29T19:31:01.141Z,48.71
2019-03-29T19:33:34.683Z,48.74
2019-03-29T19:36:08.620Z,48.47
2019-03-29T19:38:42.317Z,48.96
2019-03-29T19:41:15.964Z,49.11
2019-03-29T19:43:51.563Z,49.43
2019-03-29T19:46:25.496Z,49.66
2019-03-29T19:48:59.036Z,49.67
2019-03-29T19:51:33.107Z,49.69
2019-03-29T19:54:07.869Z,49.77
2019-03-29T19:56:41.916Z,49.97
2019-03-29T19:59:15.354Z,49.56
2019-03-29T20:01:49.068Z,50.16
2019-03-29T20:04:22.491Z,50.48
2019-03-29T20:06:56.208Z,50.44
2019-03-29T20:09:29.781Z,50.13
2019-03-29T20:12:03.302Z,50.45
2019-03-29T20:14:36.850Z,50.23
2019-03-29T20:17:10.325Z,50.04
2019-03-29T20:19:43.740Z,50.05
2019-03-29T20:22:17.143Z,50.43
2019-03-29T20:24:50.709Z,50.13
2019-03-29T20:27:24.308Z,50.22
2019-03-29T20:29:57.810Z,50.58
2019-03-29T20:32:31.293Z,50.95
2019-03-29T20:35:06.101Z,50.85
2019-03-29T20:37:39.539Z,51.23
2019-03-29T20:40:13.015Z,50.84
2019-03-29T20:42:46.527Z,51.15
2019-03-29T20:45:19.929Z,51.12
2019-03-29T20:47:53.491Z,51.34
2019-03-29T20:50:27.056Z,51.26
2019-03-29T20:53:00.497Z,51.23
2019-03-29T20:55:33.876Z,51.59
2019-03-29T20:58:07.327Z,51.89
2019-03-29T21:00:40.906Z,51.76
2019-03-29T21:03:14.505Z,51.62
2019-03-29T21:05:47.973Z,51.67
2019-03-29T21:08:21.392Z,52.09
2019-03-29T21:10:56.502Z,51.93
2019-03-29T21:13:30.292Z,51.71
2019-03-29T21:16:03.728Z,51.91
2019-03-29T21:18:37.255Z,51.88
2019-03-29T21:21:10.730Z,52.00
2019-03-29T21:23:47.092Z,51.83
2019-03-29T21:26:19.297Z,51.82
2019-03-29T21:28:53.152Z,51.90
2019-03-29T21:31:26.818Z,52.09
2019-03-29T21:34:00.400Z,52.55
2019-03-29T21:36:33.897Z,52.40
2019-03-29T21:39:09.230Z,52.53
2019-03-29T21:41:42.792Z,52.60
2019-03-29T21:44:16.206Z,52.68
2019-03-29T21:46:49.900Z,52.82
2019-03-29T21:49:23.384Z,52.85
2019-03-29T21:51:56.945Z,52.82
2019-03-29T21:54:30.427Z,52.76
2019-03-29T21:57:03.950Z,53.16
2019-03-29T21:59:37.420Z,53.37
2019-03-29T22:02:10.926Z,53.58
2019-03-29T22:04:44.616Z,53.75
2019-03-29T22:07:18.074Z,53.59
2019-03-29T22:09:51.530Z,53.66
2019-03-29T22:12:24.973Z,53.93
2019-03-29T22:14:58.535Z,54.15
2019-03-29T22:17:32.185Z,54.08
2019-03-29T22:20:10.373Z,54.30
2019-03-29T22:22:43.861Z,54.80
2019-03-29T22:25:17.565Z,54.75
2019-03-29T22:27:51.391Z,54.88
2019-03-29T22:30:24.796Z,54.76
2019-03-29T22:32:58.418Z,54.47
2019-03-29T22:35:31.823Z,54.30
2019-03-29T22:38:05.314Z,54.57
2019-03-29T22:40:38.709Z,54.73
2019-03-29T22:43:12.120Z,55.21
2019-03-29T22:45:46.018Z,55.41
2019-03-29T22:48:19.456Z,55.45
2019-03-29T22:50:52.793Z,54.78
2019-03-29T22:53:26.436Z,54.58
2019-03-29T22:55:59.997Z,54.46
2019-03-29T22:58:33.646Z,54.69
2019-03-29T23:01:07.247Z,54.67
2019-03-29T23:03:41.057Z,54.39
2019-03-29T23:06:14.483Z,54.24
2019-03-29T23:08:47.938Z,54.33
2019-03-29T23:11:21.529Z,54.42
2019-03-29T23:13:54.970Z,54.67
2019-03-29T23:16:30.370Z,54.76
2019-03-29T23:19:06.887Z,55.29
2019-03-29T23:21:38.884Z,55.38
2019-03-29T23:24:12.447Z,55.66
2019-03-29T23:26:45.921Z,55.21
2019-03-29T23:29:19.351Z,55.24
2019-03-29T23:31:52.953Z,55.01
2019-03-29T23:34:26.448Z,54.97
2019-03-29T23:36:59.879Z,54.98
2019-03-29T23:39:33.249Z,54.69
2019-03-29T23:42:06.854Z,55.02
2019-03-29T23:44:40.256Z,55.13
2019-03-29T23:47:13.756Z,55.07
2019-03-29T23:49:47.218Z,54.76
2019-03-29T23:52:20.630Z,54.70
2019-03-29T23:54:54.138Z,54.71
2019-03-29T23:57:27.544Z,54.66
